sensor_id;sensor_type;location;lat;lon;timestamp;pressure;altitude;pressure_sealevel;temperature;humidity
41334;BME280;27078;46.428;6.256;2023-02-05T00:02:00;98184.59;;;5.14;100.00
41334;BME280;27078;46.428;6.256;2023-02-05T00:04:26;98180.50;;;5.29;100.00
41334;BME280;27078;46.428;6.256;2023-02-05T00:06:51;98179.41;;;5.57;100.00
41334;BME280;27078;46.428;6.256;2023-02-05T00:09:16;98173.88;;;5.63;100.00
41334;BME280;27078;46.428;6.256;2023-02-05T00:11:42;98183.50;;;5.84;100.00
41334;BME280;27078;46.428;6.256;2023-02-05T00:14:07;98177.91;;;5.92;100.00
41334;BME280;27078;46.428;6.256;2023-02-05T00:16:34;98179.56;;;5.95;100.00
41334;BME280;27078;46.428;6.256;2023-02-05T00:18:59;98175.28;;;5.92;100.00
41334;BME280;27078;46.428;6.256;2023-02-05T00:21:25;98174.69;;;5.85;100.00
41334;BME280;27078;46.428;6.256;2023-02-05T00:23:52;98173.16;;;6.02;100.00
41334;BME280;27078;46.428;6.256;2023-02-05T00:26:18;98173.22;;;6.00;100.00
41334;BME280;27078;46.428;6.256;2023-02-05T00:28:43;98184.50;;;6.02;100.00
41334;BME280;27078;46.428;6.256;2023-02-05T00:31:14;98181.47;;;6.11;100.00
41334;BME280;27078;46.428;6.256;2023-02-05T00:33:39;98172.22;;;6.03;100.00
41334;BME280;27078;46.428;6.256;2023-02-05T00:36:05;98184.19;;;5.88;100.00
41334;BME280;27078;46.428;6.256;2023-02-05T00:38:31;98185.25;;;5.84;100.00
41334;BME280;27078;46.428;6.256;2023-02-05T00:40:56;98181.75;;;5.63;100.00
41334;BME280;27078;46.428;6.256;2023-02-05T00:43:21;98179.41;;;5.57;100.00
41334;BME280;27078;46.428;6.256;2023-02-05T00:45:47;98189.25;;;5.50;100.00
41334;BME280;27078;46.428;6.256;2023-02-05T00:48:12;98189.91;;;5.57;100.00
41334;BME280;27078;46.428;6.256;2023-02-05T00:50:38;98182.09;;;5.55;100.00
41334;BME280;27078;46.428;6.256;2023-02-05T00:53:03;98175.59;;;5.64;100.00
41334;BME280;27078;46.428;6.256;2023-02-05T00:55:29;98179.03;;;5.66;100.00
41334;BME280;27078;46.428;6.256;2023-02-05T00:57:54;98173.78;;;5.44;100.00
41334;BME280;27078;46.428;6.256;2023-02-05T01:00:19;98178.44;;;5.37;100.00
41334;BME280;27078;46.428;6.256;2023-02-05T01:02:45;98185.09;;;5.02;100.00
41334;BME280;27078;46.428;6.256;2023-02-05T01:05:10;98188.13;;;4.67;100.00
41334;BME280;27078;46.428;6.256;2023-02-05T01:07:36;98189.91;;;4.43;100.00
41334;BME280;27078;46.428;6.256;2023-02-05T01:10:01;98193.00;;;4.29;100.00
41334;BME280;27078;46.428;6.256;2023-02-05T01:12:26;98196.53;;;4.28;100.00
41334;BME280;27078;46.428;6.256;2023-02-05T01:14:52;98187.84;;;4.28;100.00
41334;BME280;27078;46.428;6.256;2023-02-05T01:17:18;98184.47;;;4.24;100.00
41334;BME280;27078;46.428;6.256;2023-02-05T01:19:43;98187.22;;;4.21;100.00
41334;BME280;27078;46.428;6.256;2023-02-05T01:22:09;98190.72;;;4.20;100.00
41334;BME280;27078;46.428;6.256;2023-02-05T01:24:36;98180.44;;;4.16;100.00
41334;BME280;27078;46.428;6.256;2023-02-05T01:27:01;98183.53;;;4.02;100.00
41334;BME280;27078;46.428;6.256;2023-02-05T01:29:26;98189.03;;;4.19;100.00
41334;BME280;27078;46.428;6.256;2023-02-05T01:31:52;98186.41;;;4.19;100.00
41334;BME280;27078;46.428;6.256;2023-02-05T01:34:18;98191.69;;;4.18;100.00
41334;BME280;27078;46.428;6.256;2023-02-05T01:36:43;98189.28;;;4.12;100.00
41334;BME280;27078;46.428;6.256;2023-02-05T01:39:08;98186.63;;;4.13;100.00
41334;BME280;27078;46.428;6.256;2023-02-05T01:41:34;98186.72;;;4.10;100.00
41334;BME280;27078;46.428;6.256;2023-02-05T01:46:37;98188.22;;;4.17;100.00
41334;BME280;27078;46.428;6.256;2023-02-05T01:49:05;98184.13;;;4.34;100.00
41334;BME280;27078;46.428;6.256;2023-02-05T01:51:32;98193.72;;;4.58;100.00
41334;BME280;27078;46.428;6.256;2023-02-05T01:53:59;98192.56;;;4.42;100.00
41334;BME280;27078;46.428;6.256;2023-02-05T01:56:31;98190.13;;;4.12;100.00
41334;BME280;27078;46.428;6.256;2023-02-05T01:58:59;98189.88;;;4.20;100.00
41334;BME280;27078;46.428;6.256;2023-02-05T02:01:26;98187.53;;;4.12;100.00
41334;BME280;27078;46.428;6.256;2023-02-05T02:03:53;98189.09;;;4.41;100.00
41334;BME280;27078;46.428;6.256;2023-02-05T02:06:19;98187.56;;;4.83;100.00
41334;BME280;27078;46.428;6.256;2023-02-05T02:08:45;98180.81;;;4.99;100.00
41334;BME280;27078;46.428;6.256;2023-02-05T02:11:12;98183.50;;;5.20;100.00
41334;BME280;27078;46.428;6.256;2023-02-05T02:13:42;98200.44;;;5.33;99.08
41334;BME280;27078;46.428;6.256;2023-02-05T02:16:10;98191.72;;;5.33;100.00
41334;BME280;27078;46.428;6.256;2023-02-05T02:18:36;98188.38;;;5.29;100.00
41334;BME280;27078;46.428;6.256;2023-02-05T02:21:18;98195.97;;;5.57;100.00
41334;BME280;27078;46.428;6.256;2023-02-05T02:29:02;98189.72;;;4.72;100.00
41334;BME280;27078;46.428;6.256;2023-02-05T02:31:34;98189.31;;;4.59;100.00
41334;BME280;27078;46.428;6.256;2023-02-05T02:37:23;98179.56;;;4.40;100.00
41334;BME280;27078;46.428;6.256;2023-02-05T02:39:57;98169.41;;;4.55;100.00
41334;BME280;27078;46.428;6.256;2023-02-05T02:42:31;98181.13;;;4.44;100.00
41334;BME280;27078;46.428;6.256;2023-02-05T02:44:59;98179.13;;;4.27;100.00
41334;BME280;27078;46.428;6.256;2023-02-05T02:47:39;98182.78;;;4.23;100.00
41334;BME280;27078;46.428;6.256;2023-02-05T02:50:13;98176.69;;;4.23;100.00
41334;BME280;27078;46.428;6.256;2023-02-05T02:52:43;98184.59;;;4.21;100.00
41334;BME280;27078;46.428;6.256;2023-02-05T02:55:11;98174.28;;;4.17;100.00
41334;BME280;27078;46.428;6.256;2023-02-05T02:57:39;98178.94;;;4.08;100.00
41334;BME280;27078;46.428;6.256;2023-02-05T03:00:11;98184.69;;;4.18;100.00
41334;BME280;27078;46.428;6.256;2023-02-05T03:02:38;98184.69;;;4.18;100.00
41334;BME280;27078;46.428;6.256;2023-02-05T03:05:10;98192.16;;;4.04;100.00
41334;BME280;27078;46.428;6.256;2023-02-05T03:07:43;98188.53;;;3.83;100.00
41334;BME280;27078;46.428;6.256;2023-02-05T03:12:44;98185.34;;;3.75;100.00
41334;BME280;27078;46.428;6.256;2023-02-05T03:15:10;98180.97;;;3.75;100.00
41334;BME280;27078;46.428;6.256;2023-02-05T03:17:37;98182.19;;;3.65;100.00
41334;BME280;27078;46.428;6.256;2023-02-05T03:20:20;98182.56;;;3.53;100.00
41334;BME280;27078;46.428;6.256;2023-02-05T03:22:47;98179.28;;;3.47;100.00
41334;BME280;27078;46.428;6.256;2023-02-05T03:25:12;98178.72;;;3.38;100.00
41334;BME280;27078;46.428;6.256;2023-02-05T03:27:39;98178.09;;;3.30;100.00
41334;BME280;27078;46.428;6.256;2023-02-05T03:30:05;98181.88;;;3.21;100.00
41334;BME280;27078;46.428;6.256;2023-02-05T03:32:35;98188.09;;;3.17;100.00
41334;BME280;27078;46.428;6.256;2023-02-05T03:40:47;98180.00;;;2.96;100.00
41334;BME280;27078;46.428;6.256;2023-02-05T03:46:30;98171.66;;;2.85;100.00
41334;BME280;27078;46.428;6.256;2023-02-05T03:51:42;98184.38;;;2.68;100.00
41334;BME280;27078;46.428;6.256;2023-02-05T03:54:42;98181.81;;;2.66;100.00
41334;BME280;27078;46.428;6.256;2023-02-05T03:57:17;98198.41;;;2.63;100.00
41334;BME280;27078;46.428;6.256;2023-02-05T03:59:46;98183.59;;;2.64;100.00
41334;BME280;27078;46.428;6.256;2023-02-05T04:02:13;98185.53;;;2.57;100.00
41334;BME280;27078;46.428;6.256;2023-02-05T04:04:38;98180.00;;;2.38;100.00
41334;BME280;27078;46.428;6.256;2023-02-05T04:07:04;98172.50;;;2.57;100.00
41334;BME280;27078;46.428;6.256;2023-02-05T04:09:29;98175.44;;;2.75;100.00
41334;BME280;27078;46.428;6.256;2023-02-05T04:11:54;98174.13;;;2.61;100.00
41334;BME280;27078;46.428;6.256;2023-02-05T04:14:20;98185.00;;;2.46;100.00
41334;BME280;27078;46.428;6.256;2023-02-05T04:16:45;98181.47;;;2.47;100.00
41334;BME280;27078;46.428;6.256;2023-02-05T04:19:10;98191.75;;;2.53;100.00
41334;BME280;27078;46.428;6.256;2023-02-05T04:21:36;98195.09;;;2.58;100.00
41334;BME280;27078;46.428;6.256;2023-02-05T04:24:01;98193.28;;;2.60;100.00
41334;BME280;27078;46.428;6.256;2023-02-05T04:26:26;98190.28;;;2.73;100.00
41334;BME280;27078;46.428;6.256;2023-02-05T04:28:52;98205.13;;;2.71;100.00
41334;BME280;27078;46.428;6.256;2023-02-05T04:31:17;98200.16;;;2.93;100.00
41334;BME280;27078;46.428;6.256;2023-02-05T04:33:42;98188.91;;;2.91;100.00
41334;BME280;27078;46.428;6.256;2023-02-05T04:36:08;98199.09;;;2.98;100.00
41334;BME280;27078;46.428;6.256;2023-02-05T04:38:34;98200.44;;;3.12;100.00
41334;BME280;27078;46.428;6.256;2023-02-05T04:40:59;98196.69;;;2.92;100.00
41334;BME280;27078;46.428;6.256;2023-02-05T04:43:24;98207.22;;;2.59;100.00
41334;BME280;27078;46.428;6.256;2023-02-05T04:45:50;98206.91;;;2.39;100.00
41334;BME280;27078;46.428;6.256;2023-02-05T04:48:15;98211.75;;;2.21;100.00
41334;BME280;27078;46.428;6.256;2023-02-05T04:50:41;98232.38;;;1.98;100.00
41334;BME280;27078;46.428;6.256;2023-02-05T04:53:06;98223.06;;;1.88;100.00
41334;BME280;27078;46.428;6.256;2023-02-05T04:55:32;98219.94;;;1.75;100.00
41334;BME280;27078;46.428;6.256;2023-02-05T04:57:57;98218.56;;;1.60;100.00
41334;BME280;27078;46.428;6.256;2023-02-05T05:00:23;98226.91;;;1.38;100.00
41334;BME280;27078;46.428;6.256;2023-02-05T05:02:49;98220.16;;;1.31;100.00
41334;BME280;27078;46.428;6.256;2023-02-05T05:05:14;98217.75;;;1.20;100.00
41334;BME280;27078;46.428;6.256;2023-02-05T05:07:39;98224.88;;;1.14;100.00
41334;BME280;27078;46.428;6.256;2023-02-05T05:10:05;98231.13;;;1.05;100.00
41334;BME280;27078;46.428;6.256;2023-02-05T05:12:33;98231.34;;;0.97;100.00
41334;BME280;27078;46.428;6.256;2023-02-05T05:14:58;98237.63;;;0.87;100.00
41334;BME280;27078;46.428;6.256;2023-02-05T05:17:24;98244.53;;;0.88;100.00
41334;BME280;27078;46.428;6.256;2023-02-05T05:19:49;98235.16;;;0.79;100.00
41334;BME280;27078;46.428;6.256;2023-02-05T05:22:14;98249.09;;;0.77;100.00
41334;BME280;27078;46.428;6.256;2023-02-05T05:24:40;98246.25;;;0.89;100.00
41334;BME280;27078;46.428;6.256;2023-02-05T05:27:05;98239.41;;;0.85;100.00
41334;BME280;27078;46.428;6.256;2023-02-05T05:29:30;98229.16;;;0.76;100.00
41334;BME280;27078;46.428;6.256;2023-02-05T05:31:56;98229.00;;;0.85;100.00
41334;BME280;27078;46.428;6.256;2023-02-05T05:34:21;98232.59;;;0.78;100.00
41334;BME280;27078;46.428;6.256;2023-02-05T05:36:46;98239.53;;;0.79;100.00
41334;BME280;27078;46.428;6.256;2023-02-05T05:39:13;98233.47;;;0.78;100.00
41334;BME280;27078;46.428;6.256;2023-02-05T05:41:57;98240.59;;;0.70;100.00
41334;BME280;27078;46.428;6.256;2023-02-05T05:44:41;98238.09;;;0.66;100.00
41334;BME280;27078;46.428;6.256;2023-02-05T05:47:06;98245.13;;;0.59;100.00
41334;BME280;27078;46.428;6.256;2023-02-05T05:49:31;98245.34;;;0.48;100.00
41334;BME280;27078;46.428;6.256;2023-02-05T05:51:56;98245.41;;;0.45;100.00
41334;BME280;27078;46.428;6.256;2023-02-05T05:54:22;98238.50;;;0.44;100.00
41334;BME280;27078;46.428;6.256;2023-02-05T05:56:47;98236.84;;;0.40;100.00
41334;BME280;27078;46.428;6.256;2023-02-05T05:59:14;98251.53;;;0.43;100.00
41334;BME280;27078;46.428;6.256;2023-02-05T06:01:39;98253.97;;;0.50;100.00
41334;BME280;27078;46.428;6.256;2023-02-05T06:04:04;98269.41;;;0.59;100.00
41334;BME280;27078;46.428;6.256;2023-02-05T06:06:30;98259.75;;;0.66;100.00
41334;BME280;27078;46.428;6.256;2023-02-05T06:08:55;98259.56;;;0.74;100.00
41334;BME280;27078;46.428;6.256;2023-02-05T06:11:21;98257.78;;;0.76;100.00
41334;BME280;27078;46.428;6.256;2023-02-05T06:13:46;98256.09;;;0.75;100.00
41334;BME280;27078;46.428;6.256;2023-02-05T06:16:11;98264.84;;;0.71;100.00
41334;BME280;27078;46.428;6.256;2023-02-05T06:18:37;98270.88;;;0.73;100.00
41334;BME280;27078;46.428;6.256;2023-02-05T06:21:03;98271.66;;;0.76;100.00
41334;BME280;27078;46.428;6.256;2023-02-05T06:23:30;98272.53;;;0.77;100.00
41334;BME280;27078;46.428;6.256;2023-02-05T06:25:56;98280.31;;;0.77;100.00
41334;BME280;27078;46.428;6.256;2023-02-05T06:28:21;98286.41;;;0.76;100.00
41334;BME280;27078;46.428;6.256;2023-02-05T06:30:46;98292.38;;;0.81;100.00
41334;BME280;27078;46.428;6.256;2023-02-05T06:33:12;98297.59;;;0.81;100.00
41334;BME280;27078;46.428;6.256;2023-02-05T06:35:38;98295.72;;;0.86;100.00
41334;BME280;27078;46.428;6.256;2023-02-05T06:38:03;98288.66;;;0.93;100.00
41334;BME280;27078;46.428;6.256;2023-02-05T06:40:28;98294.88;;;0.87;100.00
41334;BME280;27078;46.428;6.256;2023-02-05T06:42:54;98302.69;;;0.86;100.00
41334;BME280;27078;46.428;6.256;2023-02-05T06:45:20;98304.66;;;0.74;100.00
41334;BME280;27078;46.428;6.256;2023-02-05T06:47:45;98310.63;;;0.78;100.00
41334;BME280;27078;46.428;6.256;2023-02-05T06:50:11;98322.78;;;0.79;100.00
41334;BME280;27078;46.428;6.256;2023-02-05T06:52:36;98322.56;;;0.88;100.00
41334;BME280;27078;46.428;6.256;2023-02-05T06:55:02;98314.78;;;0.88;100.00
41334;BME280;27078;46.428;6.256;2023-02-05T06:57:27;98319.97;;;0.88;100.00
41334;BME280;27078;46.428;6.256;2023-02-05T06:59:52;98326.97;;;0.85;100.00
41334;BME280;27078;46.428;6.256;2023-02-05T07:02:18;98325.19;;;0.88;100.00
41334;BME280;27078;46.428;6.256;2023-02-05T07:04:43;98331.91;;;1.00;100.00
41334;BME280;27078;46.428;6.256;2023-02-05T07:07:08;98334.44;;;1.01;100.00
41334;BME280;27078;46.428;6.256;2023-02-05T07:09:34;98336.16;;;1.02;100.00
41334;BME280;27078;46.428;6.256;2023-02-05T07:11:59;98343.03;;;1.07;100.00
41334;BME280;27078;46.428;6.256;2023-02-05T07:14:25;98332.53;;;1.10;100.00
41334;BME280;27078;46.428;6.256;2023-02-05T07:16:50;98330.59;;;1.21;100.00
41334;BME280;27078;46.428;6.256;2023-02-05T07:19:16;98337.50;;;1.22;100.00
41334;BME280;27078;46.428;6.256;2023-02-05T07:21:42;98330.50;;;1.24;100.00
41334;BME280;27078;46.428;6.256;2023-02-05T07:24:07;98324.31;;;1.30;100.00
41334;BME280;27078;46.428;6.256;2023-02-05T07:26:32;98337.81;;;1.47;100.00
41334;BME280;27078;46.428;6.256;2023-02-05T07:29:00;98338.47;;;1.57;100.00
41334;BME280;27078;46.428;6.256;2023-02-05T07:31:25;98335.72;;;1.63;100.00
41334;BME280;27078;46.428;6.256;2023-02-05T07:33:50;98337.06;;;1.79;100.00
41334;BME280;27078;46.428;6.256;2023-02-05T07:36:17;98353.31;;;1.91;100.00
41334;BME280;27078;46.428;6.256;2023-02-05T07:38:43;98340.09;;;1.98;100.00
41334;BME280;27078;46.428;6.256;2023-02-05T07:41:10;98337.06;;;2.15;100.00
41334;BME280;27078;46.428;6.256;2023-02-05T07:43:37;98334.97;;;2.30;100.00
41334;BME280;27078;46.428;6.256;2023-02-05T07:46:05;98339.88;;;2.42;100.00
41334;BME280;27078;46.428;6.256;2023-02-05T07:48:31;98345.38;;;2.64;100.00
41334;BME280;27078;46.428;6.256;2023-02-05T07:50:56;98333.63;;;2.80;100.00
41334;BME280;27078;46.428;6.256;2023-02-05T07:53:22;98334.94;;;2.95;100.00
41334;BME280;27078;46.428;6.256;2023-02-05T07:55:48;98344.25;;;3.04;100.00
41334;BME280;27078;46.428;6.256;2023-02-05T07:58:13;98336.94;;;3.17;100.00
41334;BME280;27078;46.428;6.256;2023-02-05T08:00:39;98343.56;;;3.29;100.00
41334;BME280;27078;46.428;6.256;2023-02-05T08:03:05;98330.25;;;3.36;100.00
41334;BME280;27078;46.428;6.256;2023-02-05T08:05:30;98328.13;;;3.49;100.00
41334;BME280;27078;46.428;6.256;2023-02-05T08:07:56;98333.97;;;3.57;100.00
41334;BME280;27078;46.428;6.256;2023-02-05T08:10:21;98341.41;;;3.71;100.00
41334;BME280;27078;46.428;6.256;2023-02-05T08:12:47;98341.84;;;3.85;100.00
41334;BME280;27078;46.428;6.256;2023-02-05T08:15:12;98339.69;;;3.98;100.00
41334;BME280;27078;46.428;6.256;2023-02-05T08:17:37;98345.16;;;4.17;100.00
41334;BME280;27078;46.428;6.256;2023-02-05T08:20:04;98357.53;;;4.39;100.00
41334;BME280;27078;46.428;6.256;2023-02-05T08:22:33;98367.41;;;4.56;100.00
41334;BME280;27078;46.428;6.256;2023-02-05T08:24:59;98374.34;;;4.82;100.00
41334;BME280;27078;46.428;6.256;2023-02-05T08:27:25;98364.63;;;5.10;100.00
41334;BME280;27078;46.428;6.256;2023-02-05T08:29:50;98352.41;;;5.33;100.00
41334;BME280;27078;46.428;6.256;2023-02-05T08:32:15;98368.91;;;5.59;100.00
41334;BME280;27078;46.428;6.256;2023-02-05T08:34:41;98360.00;;;5.86;97.82
41334;BME280;27078;46.428;6.256;2023-02-05T08:37:06;98362.19;;;6.19;93.85
41334;BME280;27078;46.428;6.256;2023-02-05T08:39:31;98362.44;;;6.56;94.26
41334;BME280;27078;46.428;6.256;2023-02-05T08:41:57;98357.34;;;6.92;91.68
41334;BME280;27078;46.428;6.256;2023-02-05T08:44:22;98355.94;;;7.24;89.49
41334;BME280;27078;46.428;6.256;2023-02-05T08:46:47;98358.16;;;7.52;88.10
41334;BME280;27078;46.428;6.256;2023-02-05T08:49:13;98346.50;;;7.77;86.79
41334;BME280;27078;46.428;6.256;2023-02-05T08:51:38;98357.84;;;7.97;83.39
41334;BME280;27078;46.428;6.256;2023-02-05T08:54:03;98338.97;;;8.23;84.19
41334;BME280;27078;46.428;6.256;2023-02-05T08:56:33;98335.47;;;8.42;82.40
41334;BME280;27078;46.428;6.256;2023-02-05T08:58:58;98346.25;;;8.54;84.11
41334;BME280;27078;46.428;6.256;2023-02-05T09:01:23;98338.44;;;8.53;78.31
41334;BME280;27078;46.428;6.256;2023-02-05T09:03:49;98334.66;;;8.40;77.82
41334;BME280;27078;46.428;6.256;2023-02-05T09:06:14;98327.38;;;8.27;81.65
41334;BME280;27078;46.428;6.256;2023-02-05T09:08:40;98335.25;;;8.46;87.27
41334;BME280;27078;46.428;6.256;2023-02-05T09:11:06;98345.88;;;8.45;83.92
41334;BME280;27078;46.428;6.256;2023-02-05T09:13:32;98340.94;;;8.37;84.04
41334;BME280;27078;46.428;6.256;2023-02-05T09:15:58;98354.09;;;8.20;83.68
41334;BME280;27078;46.428;6.256;2023-02-05T09:18:24;98343.94;;;8.12;86.83
41334;BME280;27078;46.428;6.256;2023-02-05T09:20:50;98338.34;;;8.01;89.07
41334;BME280;27078;46.428;6.256;2023-02-05T09:23:20;98326.13;;;7.81;84.83
41334;BME280;27078;46.428;6.256;2023-02-05T09:25:45;98323.03;;;7.72;84.58
41334;BME280;27078;46.428;6.256;2023-02-05T09:28:12;98313.94;;;7.61;83.61
41334;BME280;27078;46.428;6.256;2023-02-05T09:30:39;98323.75;;;7.76;86.75
41334;BME280;27078;46.428;6.256;2023-02-05T09:33:05;98316.50;;;7.81;85.65
41334;BME280;27078;46.428;6.256;2023-02-05T09:35:32;98310.53;;;7.78;88.11
41334;BME280;27078;46.428;6.256;2023-02-05T09:37:58;98313.19;;;7.95;88.95
41334;BME280;27078;46.428;6.256;2023-02-05T09:40:27;98312.81;;;8.20;88.48
41334;BME280;27078;46.428;6.256;2023-02-05T09:42:59;98306.88;;;8.34;80.76
41334;BME280;27078;46.428;6.256;2023-02-05T09:45:35;98316.81;;;8.46;81.36
41334;BME280;27078;46.428;6.256;2023-02-05T09:48:33;98305.47;;;8.27;69.36
41334;BME280;27078;46.428;6.256;2023-02-05T09:51:07;98301.88;;;8.47;74.49
41334;BME280;27078;46.428;6.256;2023-02-05T09:53:37;98300.44;;;8.57;76.60
41334;BME280;27078;46.428;6.256;2023-02-05T09:56:06;98289.47;;;8.66;71.18
41334;BME280;27078;46.428;6.256;2023-02-05T09:58:41;98282.59;;;8.80;73.14
41334;BME280;27078;46.428;6.256;2023-02-05T10:01:27;98278.50;;;8.91;69.82
41334;BME280;27078;46.428;6.256;2023-02-05T10:03:56;98279.00;;;8.98;67.08
41334;BME280;27078;46.428;6.256;2023-02-05T10:09:30;98261.38;;;9.32;65.49
41334;BME280;27078;46.428;6.256;2023-02-05T10:23:16;98265.25;;;9.09;64.42
41334;BME280;27078;46.428;6.256;2023-02-05T10:31:00;98267.13;;;9.23;63.30
41334;BME280;27078;46.428;6.256;2023-02-05T10:36:29;98255.91;;;9.35;61.71
41334;BME280;27078;46.428;6.256;2023-02-05T10:38:55;98258.47;;;9.36;63.03
41334;BME280;27078;46.428;6.256;2023-02-05T10:41:36;98251.41;;;9.37;63.59
41334;BME280;27078;46.428;6.256;2023-02-05T10:44:23;98246.81;;;9.41;64.05
41334;BME280;27078;46.428;6.256;2023-02-05T10:46:56;98239.41;;;9.47;66.86
41334;BME280;27078;46.428;6.256;2023-02-05T10:49:37;98240.75;;;9.54;65.89
41334;BME280;27078;46.428;6.256;2023-02-05T10:52:04;98240.84;;;9.53;65.96
41334;BME280;27078;46.428;6.256;2023-02-05T10:54:31;98240.19;;;9.33;61.40
41334;BME280;27078;46.428;6.256;2023-02-05T10:57:00;98250.81;;;9.32;63.36
41334;BME280;27078;46.428;6.256;2023-02-05T10:59:29;98235.91;;;9.31;63.87
41334;BME280;27078;46.428;6.256;2023-02-05T11:01:57;98227.84;;;9.18;64.06
41334;BME280;27078;46.428;6.256;2023-02-05T11:04:35;98222.38;;;9.37;64.81
41334;BME280;27078;46.428;6.256;2023-02-05T11:07:02;98220.09;;;9.31;63.38
41334;BME280;27078;46.428;6.256;2023-02-05T11:09:32;98215.25;;;9.39;64.29
41334;BME280;27078;46.428;6.256;2023-02-05T11:12:36;98203.66;;;9.42;63.00
41334;BME280;27078;46.428;6.256;2023-02-05T11:15:02;98201.63;;;9.47;65.08
41334;BME280;27078;46.428;6.256;2023-02-05T11:17:34;98197.88;;;9.35;62.44
41334;BME280;27078;46.428;6.256;2023-02-05T11:20:03;98203.16;;;9.03;62.21
41334;BME280;27078;46.428;6.256;2023-02-05T11:22:35;98196.53;;;8.96;62.96
41334;BME280;27078;46.428;6.256;2023-02-05T11:25:14;98205.88;;;8.86;61.81
41334;BME280;27078;46.428;6.256;2023-02-05T11:30:22;98176.41;;;9.11;61.87
41334;BME280;27078;46.428;6.256;2023-02-05T11:32:49;98181.59;;;9.12;62.39
41334;BME280;27078;46.428;6.256;2023-02-05T11:40:31;98178.16;;;8.94;63.92
41334;BME280;27078;46.428;6.256;2023-02-05T11:43:22;98176.03;;;9.01;62.59
41334;BME280;27078;46.428;6.256;2023-02-05T11:45:50;98167.22;;;9.02;62.49
41334;BME280;27078;46.428;6.256;2023-02-05T11:48:44;98168.31;;;8.98;62.18
41334;BME280;27078;46.428;6.256;2023-02-05T11:51:14;98169.41;;;9.10;63.04
41334;BME280;27078;46.428;6.256;2023-02-05T11:53:54;98169.19;;;9.14;64.09
41334;BME280;27078;46.428;6.256;2023-02-05T11:56:23;98162.88;;;9.17;63.67
41334;BME280;27078;46.428;6.256;2023-02-05T11:59:04;98161.66;;;8.91;63.24
41334;BME280;27078;46.428;6.256;2023-02-05T12:01:33;98158.25;;;9.21;64.29
41334;BME280;27078;46.428;6.256;2023-02-05T12:04:13;98161.59;;;9.24;64.20
41334;BME280;27078;46.428;6.256;2023-02-05T12:06:56;98171.78;;;8.99;63.48
41334;BME280;27078;46.428;6.256;2023-02-05T12:09:25;98168.31;;;9.14;66.95
41334;BME280;27078;46.428;6.256;2023-02-05T12:12:02;98157.53;;;9.19;65.77
41334;BME280;27078;46.428;6.256;2023-02-05T12:15:02;98164.72;;;9.31;65.63
41334;BME280;27078;46.428;6.256;2023-02-05T12:17:51;98156.31;;;9.24;64.01
41334;BME280;27078;46.428;6.256;2023-02-05T12:20:26;98150.53;;;9.17;64.61
41334;BME280;27078;46.428;6.256;2023-02-05T12:25:49;98152.50;;;8.98;62.77
41334;BME280;27078;46.428;6.256;2023-02-05T12:28:40;98153.41;;;8.32;66.00
41334;BME280;27078;46.428;6.256;2023-02-05T12:31:43;98152.50;;;8.15;66.77
41334;BME280;27078;46.428;6.256;2023-02-05T12:44:34;98155.16;;;7.09;74.13
41334;BME280;27078;46.428;6.256;2023-02-05T12:56:05;98151.31;;;7.17;76.88
41334;BME280;27078;46.428;6.256;2023-02-05T12:58:38;98144.19;;;7.19;77.23
41334;BME280;27078;46.428;6.256;2023-02-05T13:01:13;98151.19;;;7.20;75.74
41334;BME280;27078;46.428;6.256;2023-02-05T13:03:53;98147.88;;;7.51;76.91
41334;BME280;27078;46.428;6.256;2023-02-05T13:06:29;98139.31;;;7.82;72.24
41334;BME280;27078;46.428;6.256;2023-02-05T13:09:05;98146.72;;;7.74;69.93
41334;BME280;27078;46.428;6.256;2023-02-05T13:11:40;98134.44;;;7.92;71.26
41334;BME280;27078;46.428;6.256;2023-02-05T13:16:46;98124.63;;;7.61;68.66
41334;BME280;27078;46.428;6.256;2023-02-05T13:19:23;98121.69;;;7.49;68.18
41334;BME280;27078;46.428;6.256;2023-02-05T13:21:52;98104.28;;;7.64;67.57
41334;BME280;27078;46.428;6.256;2023-02-05T13:24:43;98104.34;;;7.63;68.20
41334;BME280;27078;46.428;6.256;2023-02-05T13:27:32;98101.66;;;7.98;68.15
41334;BME280;27078;46.428;6.256;2023-02-05T13:30:27;98092.91;;;8.48;68.15
41334;BME280;27078;46.428;6.256;2023-02-05T13:32:56;98085.78;;;8.82;69.63
41334;BME280;27078;46.428;6.256;2023-02-05T13:35:25;98084.00;;;8.98;71.61
41334;BME280;27078;46.428;6.256;2023-02-05T13:49:45;98088.03;;;9.20;64.70
41334;BME280;27078;46.428;6.256;2023-02-05T14:00:19;98095.50;;;7.99;67.67
41334;BME280;27078;46.428;6.256;2023-02-05T14:02:46;98080.38;;;8.35;71.33
41334;BME280;27078;46.428;6.256;2023-02-05T14:05:14;98076.53;;;8.74;65.99
41334;BME280;27078;46.428;6.256;2023-02-05T14:07:45;98077.03;;;8.81;64.60
41334;BME280;27078;46.428;6.256;2023-02-05T14:10:39;98074.28;;;8.99;70.56
41334;BME280;27078;46.428;6.256;2023-02-05T14:13:22;98069.59;;;9.04;65.71
41334;BME280;27078;46.428;6.256;2023-02-05T14:15:48;98059.72;;;9.07;64.77
41334;BME280;27078;46.428;6.256;2023-02-05T14:29:45;98041.84;;;9.87;66.31
41334;BME280;27078;46.428;6.256;2023-02-05T14:32:12;98042.06;;;9.84;65.85
41334;BME280;27078;46.428;6.256;2023-02-05T14:35:31;98045.94;;;9.48;63.01
41334;BME280;27078;46.428;6.256;2023-02-05T14:38:00;98050.59;;;9.29;61.68
41334;BME280;27078;46.428;6.256;2023-02-05T14:40:31;98040.22;;;9.26;63.26
41334;BME280;27078;46.428;6.256;2023-02-05T14:43:11;98041.56;;;9.33;67.76
41334;BME280;27078;46.428;6.256;2023-02-05T14:45:44;98032.59;;;9.21;62.26
41334;BME280;27078;46.428;6.256;2023-02-05T14:48:26;98031.78;;;9.35;64.16
41334;BME280;27078;46.428;6.256;2023-02-05T14:50:59;98044.78;;;9.38;62.59
41334;BME280;27078;46.428;6.256;2023-02-05T14:53:25;98044.59;;;9.41;64.69
41334;BME280;27078;46.428;6.256;2023-02-05T14:55:50;98040.75;;;9.47;66.54
41334;BME280;27078;46.428;6.256;2023-02-05T14:58:25;98041.19;;;9.39;63.36
41334;BME280;27078;46.428;6.256;2023-02-05T15:03:58;98041.47;;;9.04;65.55
41334;BME280;27078;46.428;6.256;2023-02-05T15:06:26;98035.22;;;8.59;68.02
41334;BME280;27078;46.428;6.256;2023-02-05T15:09:03;98037.03;;;8.25;68.46
41334;BME280;27078;46.428;6.256;2023-02-05T15:16:45;98025.50;;;8.12;66.94